createdAt,value
2019-02-19T00:00:44.375Z,980.64
2019-02-19T00:01:44.285Z,980.69
2019-02-19T00:02:44.202Z,980.72
2019-02-19T00:03:44.111Z,980.76
2019-02-19T00:04:44.022Z,980.81
2019-02-19T00:05:43.936Z,980.79
2019-02-19T00:06:43.847Z,980.77
2019-02-19T00:07:43.759Z,980.79
2019-02-19T00:08:43.672Z,980.72
2019-02-19T00:09:43.584Z,980.73
2019-02-19T00:10:43.496Z,980.77
2019-02-19T00:11:43.408Z,980.75
2019-02-19T00:12:43.321Z,980.75
2019-02-19T00:13:43.236Z,980.74
2019-02-19T00:14:43.146Z,980.82
2019-02-19T00:15:43.058Z,980.80
2019-02-19T00:16:42.968Z,980.81
2019-02-19T00:17:42.886Z,980.84
2019-02-19T00:18:42.797Z,980.81
2019-02-19T00:19:42.701Z,980.79
2019-02-19T00:20:42.627Z,980.76
2019-02-19T00:21:42.529Z,980.75
2019-02-19T00:22:42.467Z,980.80
2019-02-19T00:23:42.356Z,980.79
2019-02-19T00:24:42.307Z,980.78
2019-02-19T00:25:42.179Z,980.76
2019-02-19T00:26:42.092Z,980.73
2019-02-19T00:27:42.008Z,980.77
2019-02-19T00:28:41.918Z,980.74
2019-02-19T00:29:41.829Z,980.79
2019-02-19T00:30:41.752Z,980.78
2019-02-19T00:31:41.656Z,980.79
2019-02-19T00:32:41.561Z,980.76
2019-02-19T00:33:41.484Z,980.75
2019-02-19T00:34:41.391Z,980.81
2019-02-19T00:35:41.302Z,980.81
2019-02-19T00:36:41.216Z,980.80
2019-02-19T00:37:41.127Z,980.81
2019-02-19T00:38:41.038Z,980.79
2019-02-19T00:39:40.944Z,980.81
2019-02-19T00:40:40.865Z,980.80
2019-02-19T00:41:40.779Z,980.85
2019-02-19T00:42:40.683Z,980.85
2019-02-19T00:43:40.611Z,980.85
2019-02-19T00:44:40.511Z,980.90
2019-02-19T00:45:40.427Z,980.89
2019-02-19T00:46:40.346Z,980.89
2019-02-19T00:47:40.244Z,980.93
2019-02-19T00:48:40.158Z,980.91
2019-02-19T00:49:40.067Z,980.94
2019-02-19T00:50:39.983Z,980.93
2019-02-19T00:51:39.892Z,980.93
2019-02-19T00:52:39.810Z,980.96
2019-02-19T00:53:39.715Z,980.95
2019-02-19T00:54:39.630Z,980.95
2019-02-19T00:55:39.542Z,980.89
2019-02-19T00:56:39.455Z,980.90
2019-02-19T00:57:39.368Z,980.89
2019-02-19T00:58:39.283Z,980.94
2019-02-19T00:59:39.191Z,980.92
2019-02-19T01:00:39.108Z,980.93
2019-02-19T01:01:39.009Z,980.98
2019-02-19T01:02:38.930Z,980.93
2019-02-19T01:03:38.839Z,980.96
2019-02-19T01:04:38.745Z,980.97
2019-02-19T01:05:38.661Z,980.99
2019-02-19T01:06:38.573Z,981.00
2019-02-19T01:07:38.485Z,981.00
2019-02-19T01:08:38.396Z,980.96
2019-02-19T01:09:38.309Z,980.95
2019-02-19T01:10:38.221Z,981.01
2019-02-19T01:11:38.135Z,980.98
2019-02-19T01:12:38.046Z,981.01
2019-02-19T01:13:37.947Z,980.98
2019-02-19T01:14:37.867Z,980.98
2019-02-19T01:15:37.779Z,981.02
2019-02-19T01:16:37.691Z,981.02
2019-02-19T01:17:37.601Z,981.02
2019-02-19T01:18:37.511Z,981.01
2019-02-19T01:19:37.428Z,981.05
2019-02-19T01:20:37.337Z,980.98
2019-02-19T01:21:37.249Z,981.04
2019-02-19T01:22:37.154Z,981.03
2019-02-19T01:23:37.071Z,981.05
2019-02-19T01:24:36.984Z,981.06
2019-02-19T01:25:36.899Z,981.13
2019-02-19T01:26:36.808Z,981.10
2019-02-19T01:27:36.717Z,981.12
2019-02-19T01:28:36.633Z,981.13
2019-02-19T01:29:36.541Z,981.11
2019-02-19T01:30:36.453Z,981.10
2019-02-19T01:31:36.362Z,981.11
2019-02-19T01:32:36.275Z,981.13
2019-02-19T01:33:36.185Z,981.06
2019-02-19T01:34:36.101Z,981.05
2019-02-19T01:35:36.009Z,981.07
2019-02-19T01:36:35.918Z,981.03
2019-02-19T01:37:35.832Z,981.06
2019-02-19T01:38:35.738Z,981.06
2019-02-19T01:39:35.654Z,981.06
2019-02-19T01:40:35.567Z,981.08
2019-02-19T01:41:35.480Z,981.04
2019-02-19T01:42:35.392Z,981.02
2019-02-19T01:43:35.301Z,981.02
2019-02-19T01:44:35.214Z,981.05
2019-02-19T01:45:35.122Z,981.06
2019-02-19T01:46:35.029Z,981.04
2019-02-19T01:47:34.946Z,981.01
2019-02-19T01:48:34.858Z,981.03
2019-02-19T01:49:34.769Z,981.05
2019-02-19T01:50:34.680Z,981.01
2019-02-19T01:51:34.585Z,981.02
2019-02-19T01:52:34.502Z,981.03
2019-02-19T01:53:34.441Z,981.00
2019-02-19T01:54:34.326Z,980.95
2019-02-19T01:55:34.231Z,980.96
2019-02-19T01:56:34.144Z,980.94
2019-02-19T01:57:34.059Z,980.91
2019-02-19T01:58:33.973Z,980.92
2019-02-19T01:59:33.885Z,980.89
2019-02-19T02:00:33.792Z,980.87
2019-02-19T02:01:33.707Z,980.86
2019-02-19T02:02:33.616Z,980.87
2019-02-19T02:03:33.531Z,980.84
2019-02-19T02:04:33.440Z,980.90
2019-02-19T02:05:33.355Z,980.86
2019-02-19T02:06:33.267Z,980.86
2019-02-19T02:07:33.174Z,980.87
2019-02-19T02:08:33.089Z,980.85
2019-02-19T02:09:33.012Z,980.84
2019-02-19T02:10:32.911Z,980.86
2019-02-19T02:11:32.824Z,980.88
2019-02-19T02:12:32.737Z,980.83
2019-02-19T02:13:32.652Z,980.84
2019-02-19T02:14:32.554Z,980.84
2019-02-19T02:15:32.469Z,980.82
2019-02-19T02:16:32.378Z,980.80
2019-02-19T02:17:32.296Z,980.80
2019-02-19T02:18:32.205Z,980.81
2019-02-19T02:19:32.112Z,980.78
2019-02-19T02:20:32.036Z,980.80
2019-02-19T02:21:31.938Z,980.76
2019-02-19T02:22:31.851Z,980.76
2019-02-19T02:23:31.761Z,980.79
2019-02-19T02:24:31.675Z,980.78
2019-02-19T02:25:31.588Z,980.77
2019-02-19T02:26:31.501Z,980.77
2019-02-19T02:27:31.411Z,980.75
2019-02-19T02:28:31.316Z,980.78
2019-02-19T02:29:31.231Z,980.78
2019-02-19T02:30:31.146Z,980.77
2019-02-19T02:31:31.056Z,980.78
2019-02-19T02:32:30.968Z,980.82
2019-02-19T02:33:30.879Z,980.80
2019-02-19T02:34:30.793Z,980.81
2019-02-19T02:35:30.702Z,980.78
2019-02-19T02:36:30.616Z,980.82
2019-02-19T02:37:30.525Z,980.80
2019-02-19T02:38:30.436Z,980.84
2019-02-19T02:39:30.350Z,980.80
2019-02-19T02:40:30.264Z,980.82
2019-02-19T02:41:30.168Z,980.80
2019-02-19T02:42:30.083Z,980.81
2019-02-19T02:43:29.995Z,980.84
2019-02-19T02:44:29.905Z,980.82
2019-02-19T02:45:29.819Z,980.85
2019-02-19T02:46:29.730Z,980.84
2019-02-19T02:47:29.638Z,980.91
2019-02-19T02:48:29.553Z,980.88
2019-02-19T02:49:29.464Z,980.89
2019-02-19T02:50:29.387Z,980.92
2019-02-19T02:51:29.286Z,980.95
2019-02-19T02:52:29.196Z,981.00
2019-02-19T02:53:29.108Z,980.95
2019-02-19T02:54:29.020Z,980.97
2019-02-19T02:55:28.934Z,980.95
2019-02-19T02:56:28.849Z,980.93
2019-02-19T02:57:28.754Z,980.94
2019-02-19T02:58:28.667Z,980.94
2019-02-19T02:59:28.574Z,980.97
2019-02-19T03:00:28.487Z,980.98
2019-02-19T03:01:28.400Z,980.97
2019-02-19T03:02:28.313Z,980.96
2019-02-19T03:03:28.223Z,981.00
2019-02-19T03:04:28.138Z,980.99
2019-02-19T03:05:28.057Z,980.99
2019-02-19T03:06:27.961Z,981.02
2019-02-19T03:07:27.868Z,981.01
2019-02-19T03:08:27.805Z,981.03
2019-02-19T03:09:27.693Z,981.02
2019-02-19T03:10:27.611Z,981.00
2019-02-19T03:11:27.512Z,980.97
2019-02-19T03:12:27.427Z,981.00
2019-02-19T03:13:27.336Z,981.01
2019-02-19T03:14:27.242Z,981.05
2019-02-19T03:15:27.157Z,981.02
2019-02-19T03:16:27.067Z,981.07
2019-02-19T03:17:26.982Z,981.02
2019-02-19T03:18:26.889Z,981.09
2019-02-19T03:19:26.808Z,981.07
2019-02-19T03:20:26.711Z,981.06
2019-02-19T03:21:26.625Z,981.08
2019-02-19T03:22:26.537Z,981.08
2019-02-19T03:23:26.448Z,981.07
2019-02-19T03:24:26.354Z,981.10
2019-02-19T03:25:26.278Z,981.10
2019-02-19T03:26:26.183Z,981.09
2019-02-19T03:27:26.093Z,981.08
2019-02-19T03:28:25.999Z,981.08
2019-02-19T03:29:25.907Z,981.08
2019-02-19T03:30:25.825Z,981.08
2019-02-19T03:31:25.736Z,981.08
2019-02-19T03:32:25.650Z,981.08
2019-02-19T03:33:25.559Z,981.06
2019-02-19T03:34:25.476Z,981.09
2019-02-19T03:35:25.381Z,981.11
2019-02-19T03:36:25.298Z,981.11
2019-02-19T03:37:25.203Z,981.07
2019-02-19T03:38:25.114Z,981.11
2019-02-19T03:39:25.025Z,981.10
2019-02-19T03:40:24.937Z,981.08
2019-02-19T03:41:24.849Z,981.14
2019-02-19T03:42:24.759Z,981.16
2019-02-19T03:43:24.668Z,981.16
2019-02-19T03:44:24.586Z,981.13
2019-02-19T03:45:24.502Z,981.17
2019-02-19T03:46:24.399Z,981.17
2019-02-19T03:47:24.310Z,981.20
2019-02-19T03:48:24.225Z,981.19
2019-02-19T03:49:24.137Z,981.20
2019-02-19T03:50:24.050Z,981.21
2019-02-19T03:51:23.963Z,981.19
2019-02-19T03:52:23.872Z,981.18
2019-02-19T03:53:23.788Z,981.24
2019-02-19T03:54:23.702Z,981.24
2019-02-19T03:55:23.600Z,981.24
2019-02-19T03:56:23.515Z,981.26
2019-02-19T03:57:23.441Z,981.25
2019-02-19T03:58:23.368Z,981.29
2019-02-19T03:59:23.247Z,981.28
2019-02-19T04:00:23.162Z,981.33
2019-02-19T04:01:23.071Z,981.33
2019-02-19T04:02:22.983Z,981.27
2019-02-19T04:03:22.898Z,981.26
2019-02-19T04:04:22.810Z,981.30
2019-02-19T04:05:22.710Z,981.29
2019-02-19T04:06:22.632Z,981.29
2019-02-19T04:07:22.539Z,981.28
2019-02-19T04:08:22.465Z,981.27
2019-02-19T04:09:22.364Z,981.26
2019-02-19T04:10:22.274Z,981.28
2019-02-19T04:11:22.178Z,981.24
2019-02-19T04:12:22.094Z,981.28
2019-02-19T04:13:22.007Z,981.29
2019-02-19T04:14:21.924Z,981.27
2019-02-19T04:15:21.834Z,981.28
2019-02-19T04:16:21.740Z,981.31
2019-02-19T04:17:28.825Z,981.35
2019-02-19T04:19:25.461Z,981.31
2019-02-19T04:20:25.355Z,981.30
2019-02-19T04:22:29.654Z,981.33
2019-02-19T04:23:29.562Z,981.33
2019-02-19T04:25:33.351Z,981.34
2019-02-19T04:26:33.259Z,981.35
2019-02-19T04:28:25.992Z,981.38
2019-02-19T04:29:25.896Z,981.38
2019-02-19T04:31:31.752Z,981.37
2019-02-19T04:32:30.080Z,981.38
2019-02-19T04:34:33.879Z,981.33
2019-02-19T04:35:33.812Z,981.36
2019-02-19T04:37:37.600Z,981.34
2019-02-19T04:38:37.495Z,981.36
2019-02-19T04:39:37.415Z,981.39
2019-02-19T04:40:37.322Z,981.39
2019-02-19T04:41:37.231Z,981.39
2019-02-19T04:42:37.149Z,981.39
2019-02-19T04:43:37.055Z,981.45
2019-02-19T04:44:36.965Z,981.41
2019-02-19T04:45:36.878Z,981.45
2019-02-19T04:46:36.811Z,981.45
2019-02-19T04:47:36.700Z,981.49
2019-02-19T04:48:36.611Z,981.47
2019-02-19T04:49:36.525Z,981.49
2019-02-19T04:50:36.438Z,981.50
2019-02-19T04:51:36.343Z,981.51
2019-02-19T04:52:36.256Z,981.52
2019-02-19T04:53:36.168Z,981.51
2019-02-19T04:54:36.081Z,981.54
2019-02-19T04:55:35.993Z,981.54
2019-02-19T04:56:35.901Z,981.53
2019-02-19T04:57:35.815Z,981.52
2019-02-19T04:58:35.727Z,981.53
2019-02-19T04:59:35.637Z,981.51
2019-02-19T05:00:35.549Z,981.52
2019-02-19T05:01:35.458Z,981.51
2019-02-19T05:02:35.372Z,981.53
2019-02-19T05:03:35.280Z,981.55
2019-02-19T05:04:35.193Z,981.56
2019-02-19T05:05:35.108Z,981.58
2019-02-19T05:06:35.024Z,981.58
2019-02-19T05:07:34.925Z,981.63
2019-02-19T05:08:34.844Z,981.61
2019-02-19T05:09:34.750Z,981.62
2019-02-19T05:10:34.666Z,981.63
2019-02-19T05:11:34.573Z,981.63
2019-02-19T05:12:34.484Z,981.61
2019-02-19T05:13:34.392Z,981.60
2019-02-19T05:14:34.311Z,981.62
2019-02-19T05:15:34.220Z,981.63
2019-02-19T05:16:40.484Z,981.64
2019-02-19T05:17:34.042Z,981.66
2019-02-19T05:18:33.956Z,981.65
2019-02-19T05:19:33.865Z,981.66
2019-02-19T05:20:33.789Z,981.69
2019-02-19T05:21:33.690Z,981.69
2019-02-19T05:22:33.598Z,981.66
2019-02-19T05:23:33.537Z,981.70
2019-02-19T05:24:33.425Z,981.70
2019-02-19T05:25:33.336Z,981.69
2019-02-19T05:26:33.249Z,981.63
2019-02-19T05:27:33.157Z,981.70
2019-02-19T05:28:33.068Z,981.66
2019-02-19T05:29:32.982Z,981.65
2019-02-19T05:30:32.892Z,981.65
2019-02-19T05:31:32.805Z,981.60
2019-02-19T05:32:32.714Z,981.70
2019-02-19T05:33:32.626Z,981.65
2019-02-19T05:34:32.537Z,981.69
2019-02-19T05:35:32.445Z,981.71
2019-02-19T05:36:32.363Z,981.70
2019-02-19T05:37:32.273Z,981.68
2019-02-19T05:38:32.199Z,981.71
2019-02-19T05:39:32.098Z,981.71
2019-02-19T05:40:32.010Z,981.71
2019-02-19T05:41:31.917Z,981.71
2019-02-19T05:42:31.830Z,981.72
2019-02-19T05:43:31.732Z,981.73
2019-02-19T05:44:31.651Z,981.73
2019-02-19T05:45:31.563Z,981.75
2019-02-19T05:46:31.481Z,981.73
2019-02-19T05:47:31.385Z,981.75
2019-02-19T05:48:31.298Z,981.71
2019-02-19T05:49:31.211Z,981.69
2019-02-19T05:50:31.120Z,981.70
2019-02-19T05:51:31.032Z,981.65
2019-02-19T05:52:30.941Z,981.70
2019-02-19T05:53:30.854Z,981.67
2019-02-19T05:54:30.765Z,981.66
2019-02-19T05:55:30.681Z,981.70
2019-02-19T05:56:30.598Z,981.68
2019-02-19T05:57:30.500Z,981.72
2019-02-19T05:58:30.414Z,981.73
2019-02-19T05:59:30.321Z,981.71
2019-02-19T06:00:30.234Z,981.71
2019-02-19T06:01:30.148Z,981.73
2019-02-19T06:02:30.056Z,981.74
2019-02-19T06:03:29.970Z,981.71
2019-02-19T06:04:29.882Z,981.74
2019-02-19T06:05:29.838Z,981.72
2019-02-19T06:06:29.702Z,981.72
2019-02-19T06:07:29.615Z,981.72
2019-02-19T06:08:29.528Z,981.74
2019-02-19T06:09:29.437Z,981.72
2019-02-19T06:10:29.347Z,981.72
2019-02-19T06:11:29.263Z,981.74
2019-02-19T06:12:29.168Z,981.76
2019-02-19T06:13:29.102Z,981.78
2019-02-19T06:14:28.994Z,981.79
2019-02-19T06:15:28.903Z,981.81
2019-02-19T06:16:28.816Z,981.81
2019-02-19T06:17:28.726Z,981.84
2019-02-19T06:18:28.639Z,981.85
2019-02-19T06:19:28.557Z,981.89
2019-02-19T06:20:28.480Z,981.88
2019-02-19T06:21:28.375Z,981.89
2019-02-19T06:22:28.285Z,981.90
2019-02-19T06:23:28.196Z,981.87
2019-02-19T06:24:28.118Z,981.91
2019-02-19T06:25:28.019Z,981.90
2019-02-19T06:26:27.933Z,981.91
2019-02-19T06:27:27.841Z,981.92
2019-02-19T06:28:27.754Z,981.93
2019-02-19T06:29:27.675Z,981.98
2019-02-19T06:30:27.576Z,981.95
2019-02-19T06:31:27.522Z,981.99
2019-02-19T06:32:27.400Z,982.02
2019-02-19T06:33:27.311Z,982.03
2019-02-19T06:34:27.269Z,982.06
2019-02-19T06:35:27.166Z,982.08
2019-02-19T06:36:27.071Z,982.07
2019-02-19T06:37:26.960Z,982.07
2019-02-19T06:38:26.867Z,982.06
2019-02-19T06:39:26.778Z,982.12
2019-02-19T06:40:26.690Z,982.11
2019-02-19T06:41:26.596Z,982.11
2019-02-19T06:42:26.519Z,982.11
2019-02-19T06:43:26.428Z,982.11
2019-02-19T06:44:26.341Z,982.16
2019-02-19T06:45:26.253Z,982.12
2019-02-19T06:46:26.157Z,982.21
2019-02-19T06:47:26.066Z,982.17
2019-02-19T06:48:25.977Z,982.22
2019-02-19T06:49:25.893Z,982.25
2019-02-19T06:50:25.800Z,982.26
2019-02-19T06:51:25.710Z,982.27
2019-02-19T06:52:25.619Z,982.27
2019-02-19T06:53:25.533Z,982.31
2019-02-19T06:54:25.447Z,982.28
2019-02-19T06:55:25.352Z,982.30
2019-02-19T06:56:25.263Z,982.33
2019-02-19T06:57:25.190Z,982.27
2019-02-19T06:58:25.091Z,982.30
2019-02-19T06:59:25.003Z,982.32
2019-02-19T07:00:24.914Z,982.29
2019-02-19T07:01:24.826Z,982.30
2019-02-19T07:02:24.737Z,982.35
2019-02-19T07:03:25.162Z,982.34
2019-02-19T07:04:25.357Z,982.34
2019-02-19T07:05:24.471Z,982.31
2019-02-19T07:06:24.402Z,982.34
2019-02-19T07:07:24.303Z,982.30
2019-02-19T07:08:24.204Z,982.35
2019-02-19T07:09:24.122Z,982.32
2019-02-19T07:10:24.028Z,982.37
2019-02-19T07:11:23.935Z,982.35
2019-02-19T07:12:23.862Z,982.34
2019-02-19T07:13:23.765Z,982.34
2019-02-19T07:14:23.673Z,982.33
2019-02-19T07:15:23.584Z,982.33
2019-02-19T07:16:23.499Z,982.31
2019-02-19T07:17:23.411Z,982.33
2019-02-19T07:18:23.433Z,982.33
2019-02-19T07:19:23.226Z,982.40
2019-02-19T07:20:23.143Z,982.39
2019-02-19T07:21:23.050Z,982.42
2019-02-19T07:22:22.969Z,982.45
2019-02-19T07:23:22.883Z,982.43
2019-02-19T07:24:22.787Z,982.46
2019-02-19T07:25:22.698Z,982.46
2019-02-19T07:26:22.610Z,982.47
2019-02-19T07:27:22.524Z,982.49
2019-02-19T07:28:22.435Z,982.48
2019-02-19T07:29:22.352Z,982.49
2019-02-19T07:30:22.265Z,982.51
2019-02-19T07:31:22.168Z,982.51
2019-02-19T07:32:22.084Z,982.49
2019-02-19T07:33:21.994Z,982.49
2019-02-19T07:34:21.904Z,982.49
2019-02-19T07:35:21.819Z,982.52
2019-02-19T07:36:21.730Z,982.47
2019-02-19T07:37:21.640Z,982.49
2019-02-19T07:38:21.545Z,982.47
2019-02-19T07:39:21.458Z,982.49
2019-02-19T07:40:21.370Z,982.46
2019-02-19T07:41:21.291Z,982.48
2019-02-19T07:42:21.200Z,982.45
2019-02-19T07:43:21.112Z,982.50
2019-02-19T07:44:21.018Z,982.51
2019-02-19T07:45:20.942Z,982.52
2019-02-19T07:46:20.847Z,982.54
2019-02-19T07:47:24.682Z,982.52
2019-02-19T07:48:20.684Z,982.51
2019-02-19T07:49:20.583Z,982.54
2019-02-19T07:50:20.495Z,982.50
2019-02-19T07:51:20.401Z,982.52
2019-02-19T07:52:20.313Z,982.53
2019-02-19T07:53:20.226Z,982.52
2019-02-19T07:54:20.139Z,982.53
2019-02-19T07:55:20.052Z,982.51
2019-02-19T07:56:19.962Z,982.54
2019-02-19T07:57:19.877Z,982.49
2019-02-19T07:58:19.788Z,982.45
2019-02-19T07:59:19.701Z,982.47
2019-02-19T08:00:19.623Z,982.45
2019-02-19T08:01:19.523Z,982.48
2019-02-19T08:02:19.436Z,982.45
2019-02-19T08:03:19.346Z,982.43
2019-02-19T08:04:19.263Z,982.47
2019-02-19T08:05:19.170Z,982.48
2019-02-19T08:06:19.083Z,982.46
2019-02-19T08:07:18.989Z,982.50
2019-02-19T08:08:18.899Z,982.50
2019-02-19T08:09:18.816Z,982.48
2019-02-19T08:10:18.723Z,982.49
2019-02-19T08:11:18.638Z,982.50
2019-02-19T08:12:18.553Z,982.50
2019-02-19T08:13:18.465Z,982.45
2019-02-19T08:14:18.373Z,982.49
2019-02-19T08:15:18.289Z,982.49
2019-02-19T08:16:19.050Z,982.48
2019-02-19T08:17:18.120Z,982.52
2019-02-19T08:18:18.025Z,982.51
2019-02-19T08:19:17.935Z,982.51
2019-02-19T08:20:17.849Z,982.55
2019-02-19T08:21:17.757Z,982.52
2019-02-19T08:22:17.672Z,982.57
2019-02-19T08:23:17.580Z,982.52
2019-02-19T08:24:17.490Z,982.52
2019-02-19T08:25:17.404Z,982.50
2019-02-19T08:26:17.317Z,982.52
2019-02-19T08:27:17.224Z,982.48
2019-02-19T08:28:17.141Z,982.47
2019-02-19T08:29:17.048Z,982.49
2019-02-19T08:30:16.965Z,982.51
2019-02-19T08:31:16.869Z,982.49
2019-02-19T08:32:16.787Z,982.50
2019-02-19T08:33:16.697Z,982.57
2019-02-19T08:34:16.605Z,982.51
2019-02-19T08:35:16.551Z,982.46
2019-02-19T08:36:16.433Z,982.49
2019-02-19T08:37:16.348Z,982.52
2019-02-19T08:38:16.256Z,982.54
2019-02-19T08:39:16.164Z,982.55
2019-02-19T08:40:16.082Z,982.55
2019-02-19T08:41:15.991Z,982.57
2019-02-19T08:42:15.907Z,982.57
2019-02-19T08:43:15.818Z,982.54
2019-02-19T08:44:15.731Z,982.52
2019-02-19T08:45:15.645Z,982.50
2019-02-19T08:46:15.552Z,982.47
2019-02-19T08:47:15.468Z,982.50
2019-02-19T08:48:15.381Z,982.47
2019-02-19T08:49:15.291Z,982.44
2019-02-19T08:50:15.204Z,982.48
2019-02-19T08:51:15.105Z,982.51
2019-02-19T08:52:15.025Z,982.52
2019-02-19T08:53:14.937Z,982.51
2019-02-19T08:54:14.851Z,982.54
2019-02-19T08:55:14.767Z,982.59
2019-02-19T08:56:14.707Z,982.59
2019-02-19T08:57:14.588Z,982.56
2019-02-19T08:58:14.498Z,982.54
2019-02-19T08:59:14.410Z,982.55
2019-02-19T09:00:14.323Z,982.53
2019-02-19T09:01:14.233Z,982.53
2019-02-19T09:02:14.147Z,982.55
2019-02-19T09:03:14.056Z,982.58
2019-02-19T09:04:13.979Z,982.53
2019-02-19T09:05:13.883Z,982.53
2019-02-19T09:06:13.797Z,982.54
2019-02-19T09:07:13.707Z,982.55
2019-02-19T09:08:13.625Z,982.49
2019-02-19T09:09:13.535Z,982.51
2019-02-19T09:10:13.458Z,982.46
2019-02-19T09:11:13.359Z,982.51
2019-02-19T09:12:13.287Z,982.49
2019-02-19T09:13:13.218Z,982.53
2019-02-19T09:14:13.099Z,982.50
2019-02-19T09:15:13.005Z,982.52
2019-02-19T09:16:12.920Z,982.50
2019-02-19T09:17:12.834Z,982.50
2019-02-19T09:18:12.745Z,982.55
2019-02-19T09:19:12.655Z,982.57
2019-02-19T09:20:12.570Z,982.59
2019-02-19T09:21:12.484Z,982.57
2019-02-19T09:22:12.397Z,982.61
2019-02-19T09:23:12.309Z,982.57
2019-02-19T09:24:12.218Z,982.62
2019-02-19T09:25:12.133Z,982.60
2019-02-19T09:26:12.049Z,982.58
2019-02-19T09:27:11.961Z,982.58
2019-02-19T09:28:11.869Z,982.55
2019-02-19T09:29:11.781Z,982.59
2019-02-19T09:30:11.698Z,982.57
2019-02-19T09:31:11.606Z,982.58
2019-02-19T09:32:11.518Z,982.58
2019-02-19T09:33:11.428Z,982.59
2019-02-19T09:34:11.347Z,982.59
2019-02-19T09:35:11.260Z,982.58
2019-02-19T09:36:11.196Z,982.59
2019-02-19T09:37:11.085Z,982.61
2019-02-19T09:38:10.998Z,982.59
2019-02-19T09:39:10.909Z,982.55
2019-02-19T09:40:10.830Z,982.55
2019-02-19T09:41:10.744Z,982.54
2019-02-19T09:42:10.668Z,982.59
2019-02-19T09:43:10.564Z,982.54
2019-02-19T09:44:10.479Z,982.50
2019-02-19T09:45:10.387Z,982.54
2019-02-19T09:46:10.301Z,982.55
2019-02-19T09:47:10.210Z,982.54
2019-02-19T09:48:10.120Z,982.55
2019-02-19T09:49:10.047Z,982.52
2019-02-19T09:50:09.954Z,982.52
2019-02-19T09:51:09.865Z,982.49
2019-02-19T09:52:09.778Z,982.48
2019-02-19T09:53:09.690Z,982.46
2019-02-19T09:54:09.608Z,982.51
2019-02-19T09:55:09.522Z,982.46
2019-02-19T09:56:09.430Z,982.49
2019-02-19T09:57:09.340Z,982.44
2019-02-19T09:58:09.257Z,982.48
2019-02-19T09:59:09.171Z,982.45
2019-02-19T10:00:09.084Z,982.41
2019-02-19T10:01:08.998Z,982.42
2019-02-19T10:02:08.912Z,982.36
2019-02-19T10:03:08.820Z,982.39
2019-02-19T10:04:08.736Z,982.35
2019-02-19T10:05:08.656Z,982.35
2019-02-19T10:06:08.565Z,982.31
2019-02-19T10:07:08.486Z,982.30
2019-02-19T10:08:08.387Z,982.32
2019-02-19T10:09:08.305Z,982.33
2019-02-19T10:10:08.257Z,982.33
2019-02-19T10:11:08.129Z,982.31
2019-02-19T10:12:08.045Z,982.35
2019-02-19T10:13:07.963Z,982.35
2019-02-19T10:14:07.870Z,982.36
2019-02-19T10:15:07.783Z,982.33
2019-02-19T10:16:07.696Z,982.36
2019-02-19T10:18:39.605Z,982.41
2019-02-19T10:19:39.518Z,982.35
2019-02-19T10:21:45.673Z,982.42
2019-02-19T10:22:43.713Z,982.40
2019-02-19T10:23:43.638Z,982.42
2019-02-19T10:24:43.542Z,982.42
2019-02-19T10:25:44.649Z,982.43
2019-02-19T10:26:43.361Z,982.41
2019-02-19T10:27:43.275Z,982.40
2019-02-19T10:28:43.191Z,982.40
2019-02-19T10:29:43.102Z,982.36
2019-02-19T10:30:43.018Z,982.38
2019-02-19T10:31:42.931Z,982.37
2019-02-19T10:32:42.845Z,982.33
2019-02-19T10:33:42.767Z,982.38
2019-02-19T10:34:42.673Z,982.36
2019-02-19T10:35:42.584Z,982.33
2019-02-19T10:36:42.502Z,982.30
2019-02-19T10:37:42.410Z,982.25
2019-02-19T10:38:42.331Z,982.29
2019-02-19T10:39:42.249Z,982.27
2019-02-19T10:40:42.159Z,982.25
2019-02-19T10:41:42.075Z,982.29
2019-02-19T10:42:41.988Z,982.29
2019-02-19T10:43:41.904Z,982.26
2019-02-19T10:44:41.818Z,982.28
2019-02-19T10:45:41.735Z,982.27
2019-02-19T10:46:41.649Z,982.23
2019-02-19T10:47:41.565Z,982.27
2019-02-19T10:48:41.480Z,982.25
2019-02-19T10:49:41.396Z,982.23
2019-02-19T10:50:41.308Z,982.23
2019-02-19T10:51:41.224Z,982.20
2019-02-19T10:52:41.143Z,982.19
2019-02-19T10:53:41.060Z,982.16
2019-02-19T10:54:40.971Z,982.19
2019-02-19T10:55:40.892Z,982.18
2019-02-19T10:56:40.804Z,982.17
2019-02-19T10:57:40.724Z,982.21
2019-02-19T10:58:40.634Z,982.19
2019-02-19T10:59:40.554Z,982.17
2019-02-19T11:00:40.471Z,982.17
2019-02-19T11:01:40.392Z,982.12
2019-02-19T11:02:40.305Z,982.16
2019-02-19T11:03:40.216Z,982.14
2019-02-19T11:04:40.137Z,982.14
2019-02-19T11:05:40.051Z,982.11
2019-02-19T11:06:39.973Z,982.11
2019-02-19T11:07:39.889Z,982.06
2019-02-19T11:08:39.811Z,982.01
2019-02-19T11:09:39.720Z,982.02
2019-02-19T11:10:39.637Z,982.03
2019-02-19T11:11:39.553Z,982.01
2019-02-19T11:12:39.473Z,981.98
2019-02-19T11:13:39.387Z,981.97
2019-02-19T11:14:39.309Z,981.94
2019-02-19T11:15:39.224Z,981.97
2019-02-19T11:16:39.145Z,981.94
2019-02-19T11:17:39.065Z,981.95
2019-02-19T11:18:38.977Z,981.94
2019-02-19T11:19:38.894Z,981.94
2019-02-19T11:20:38.812Z,981.92
2019-02-19T11:21:38.731Z,981.88
2019-02-19T11:22:38.650Z,981.87
2019-02-19T11:23:38.572Z,981.88
2019-02-19T11:24:38.486Z,981.84
2019-02-19T11:25:38.406Z,981.84
2019-02-19T11:26:38.322Z,981.80
2019-02-19T11:27:38.238Z,981.81
2019-02-19T11:28:38.160Z,981.81
2019-02-19T11:29:38.072Z,981.84
2019-02-19T11:30:37.993Z,981.82
2019-02-19T11:31:37.913Z,981.79
2019-02-19T11:32:37.829Z,981.80
2019-02-19T11:33:37.749Z,981.77
2019-02-19T11:34:37.669Z,981.78
2019-02-19T11:35:37.578Z,981.78
2019-02-19T11:36:37.505Z,981.77
2019-02-19T11:37:37.561Z,981.76
2019-02-19T11:38:37.342Z,981.74
2019-02-19T11:39:37.255Z,981.76
2019-02-19T11:40:37.179Z,981.75
2019-02-19T11:41:37.094Z,981.71
2019-02-19T11:42:37.017Z,981.72
2019-02-19T11:43:36.936Z,981.69
2019-02-19T11:44:36.855Z,981.66
2019-02-19T11:45:36.777Z,981.62
2019-02-19T11:46:36.693Z,981.54
2019-02-19T11:47:36.614Z,981.51
2019-02-19T11:48:37.207Z,981.51
2019-02-19T11:49:36.453Z,981.52
2019-02-19T11:50:36.371Z,981.51
2019-02-19T11:51:36.290Z,981.50
2019-02-19T11:52:36.212Z,981.53
2019-02-19T11:53:36.132Z,981.52
2019-02-19T11:54:36.051Z,981.47
2019-02-19T11:55:35.970Z,981.47
2019-02-19T11:56:35.891Z,981.51
2019-02-19T11:57:35.808Z,981.48
2019-02-19T11:58:35.732Z,981.46
2019-02-19T11:59:37.484Z,981.47
2019-02-19T12:00:35.570Z,981.46
2019-02-19T12:01:35.491Z,981.49
2019-02-19T12:02:35.416Z,981.53
2019-02-19T12:03:35.330Z,981.50
2019-02-19T12:04:35.250Z,981.51
2019-02-19T12:05:35.171Z,981.50
2019-02-19T12:06:35.082Z,981.48
2019-02-19T12:07:35.012Z,981.50
2019-02-19T12:08:39.071Z,981.50
2019-02-19T12:09:34.865Z,981.50
2019-02-19T12:10:34.764Z,981.48
2019-02-19T12:11:34.683Z,981.48
2019-02-19T12:12:34.600Z,981.53
2019-02-19T12:13:34.538Z,981.51
2019-02-19T12:14:34.440Z,981.50
2019-02-19T12:15:35.382Z,981.50
2019-02-19T12:16:34.276Z,981.49
2019-02-19T12:17:34.196Z,981.47
2019-02-19T12:18:34.113Z,981.50
2019-02-19T12:19:34.028Z,981.47
2019-02-19T12:20:33.950Z,981.51
2019-02-19T12:21:33.894Z,981.53
2019-02-19T12:22:33.786Z,981.56
2019-02-19T12:23:33.705Z,981.58
2019-02-19T12:24:33.637Z,981.58
2019-02-19T12:25:33.539Z,981.56
2019-02-19T12:26:33.456Z,981.56
2019-02-19T12:27:33.381Z,981.55
2019-02-19T12:28:33.295Z,981.58
2019-02-19T12:29:33.214Z,981.52
2019-02-19T12:30:33.128Z,981.48
2019-02-19T12:31:33.066Z,981.43
2019-02-19T12:32:32.989Z,981.41
2019-02-19T12:33:32.881Z,981.38
2019-02-19T12:34:32.801Z,981.37
2019-02-19T12:35:32.719Z,981.33
2019-02-19T12:36:32.629Z,981.29
2019-02-19T12:37:32.552Z,981.26